Time;durP1;ratioP1;P1;durP2;ratioP2;P2;SDS_P1;SDS_P2;PMS_P1;PMS_P2;Temp;Humidity;BMP_temperature;BMP_pressure;BME280_temperature;BME280_humidity;BME280_pressure;Samples;Min_cycle;Max_cycle;Signal;HPM_P1;HPM_P2
2022/10/28 00:00:55;;;;;;;6.93;4.20;;;;;;;10.93;100.00;96740.69;5030806;28;20029;-65
2022/10/28 00:03:21;;;;;;;10.18;4.78;;;;;;;10.95;100.00;96730.84;5021920;28;20026;-59
2022/10/28 00:05:47;;;;;;;11.13;4.45;;;;;;;11.03;100.00;96738.16;5027975;28;20028;-64
2022/10/28 00:08:12;;;;;;;10.50;5.05;;;;;;;10.98;100.00;96727.97;5031799;28;20434;-68
2022/10/28 00:10:37;;;;;;;12.40;4.40;;;;;;;11.00;100.00;96727.88;5030668;28;20017;-67
2022/10/28 00:13:03;;;;;;;18.88;4.47;;;;;;;11.03;100.00;96727.63;5030913;28;20056;-68
2022/10/28 00:15:29;;;;;;;16.20;5.20;;;;;;;11.03;100.00;96717.91;5030495;28;20037;-68
2022/10/28 00:17:55;;;;;;;7.95;4.03;;;;;;;11.00;100.00;96725.25;5030819;28;20029;-68
2022/10/28 00:20:20;;;;;;;13.88;4.45;;;;;;;10.96;100.00;96724.63;5030728;28;20468;-69
2022/10/28 00:22:45;;;;;;;14.25;5.57;;;;;;;10.92;100.00;96733.72;5030953;28;20033;-65
2022/10/28 00:25:11;;;;;;;13.13;4.55;;;;;;;10.93;100.00;96727.50;5030355;28;20041;-70
2022/10/28 00:27:36;;;;;;;16.42;4.80;;;;;;;10.93;100.00;96732.78;5030558;28;20061;-70
2022/10/28 00:30:02;;;;;;;15.88;4.40;;;;;;;10.91;100.00;96734.69;5030556;28;20025;-70
2022/10/28 00:32:31;;;;;;;10.95;4.63;;;;;;;10.86;100.00;96742.94;5030454;28;20075;-70
2022/10/28 00:34:57;;;;;;;13.02;5.15;;;;;;;10.93;100.00;96742.47;5030231;28;20045;-70
2022/10/28 00:37:22;;;;;;;16.55;4.78;;;;;;;10.88;100.00;96743.66;5030305;28;20068;-71
2022/10/28 00:39:48;;;;;;;13.05;4.70;;;;;;;10.85;100.00;96743.91;5030083;28;20022;-70
2022/10/28 00:42:19;;;;;;;12.52;4.82;;;;;;;10.83;100.00;96750.22;5030460;28;20543;-65
2022/10/28 00:44:44;;;;;;;16.38;4.45;;;;;;;10.83;100.00;96745.81;5030442;28;20025;-65
2022/10/28 00:47:18;;;;;;;11.90;4.20;;;;;;;10.86;100.00;96742.94;5030390;28;20557;-65
2022/10/28 00:49:46;;;;;;;15.43;4.50;;;;;;;10.83;100.00;96743.19;5029906;28;20105;-65
2022/10/28 00:52:21;;;;;;;21.02;4.40;;;;;;;10.82;100.00;96746.78;5030109;28;20026;-65
2022/10/28 00:54:48;;;;;;;16.42;4.80;;;;;;;10.78;100.00;96747.97;5030322;28;20052;-65
2022/10/28 00:57:17;;;;;;;11.05;4.35;;;;;;;10.75;100.00;96748.22;5030166;28;20427;-65
2022/10/28 00:59:48;;;;;;;11.38;4.68;;;;;;;10.71;100.00;96750.22;5029890;28;20505;-65
2022/10/28 01:02:14;;;;;;;10.25;4.25;;;;;;;10.72;100.00;96756.31;5029677;28;20053;-68
2022/10/28 01:04:41;;;;;;;12.32;4.75;;;;;;;10.68;100.00;96745.19;5029985;28;20037;-65
2022/10/28 01:07:07;;;;;;;12.82;4.40;;;;;;;10.62;100.00;96750.94;5030031;28;20029;-65
2022/10/28 01:09:32;;;;;;;13.90;4.50;;;;;;;10.55;100.00;96744.44;5029959;28;20438;-65
2022/10/28 01:12:34;;;;;;;13.02;4.78;;;;;;;10.53;100.00;96747.19;5029776;28;20025;-65
2022/10/28 01:15:34;;;;;;;9.60;4.50;;;;;;;10.55;100.00;96740.03;5029949;28;20025;-66
2022/10/28 01:18:15;;;;;;;11.02;3.95;;;;;;;10.50;100.00;96751.84;5029967;28;20029;-65
2022/10/28 01:20:41;;;;;;;16.02;4.40;;;;;;;10.51;100.00;96743.84;5029901;28;20058;-59
2022/10/28 01:23:21;;;;;;;9.93;4.47;;;;;;;10.51;100.00;96753.53;5030008;28;20029;-63
2022/10/28 01:26:17;;;;;;;16.02;4.90;;;;;;;10.51;100.00;96746.47;5017918;28;20026;-64
2022/10/28 01:29:09;;;;;;;8.60;4.57;;;;;;;10.49;100.00;96751.00;5029452;28;20010;-64
2022/10/28 01:31:39;;;;;;;15.18;4.82;;;;;;;10.48;100.00;96743.22;5029277;28;20021;-63
2022/10/28 01:34:13;;;;;;;8.10;4.10;;;;;;;10.46;100.00;96746.81;5030043;28;20100;-63
2022/10/28 01:36:41;;;;;;;12.15;4.78;;;;;;;10.43;100.00;96746.19;5028888;28;20450;-63
2022/10/28 01:39:12;;;;;;;10.32;4.10;;;;;;;10.43;100.00;96743.56;5029534;28;20026;-67
2022/10/28 01:41:49;;;;;;;15.02;4.38;;;;;;;10.42;100.00;96741.88;5029217;28;20029;-59
2022/10/28 01:44:22;;;;;;;6.63;4.22;;;;;;;10.38;100.00;96737.78;5029443;28;20095;-68
2022/10/28 01:46:53;;;;;;;14.88;4.45;;;;;;;10.39;100.00;96729.78;5029113;28;20029;-68
2022/10/28 01:49:29;;;;;;;18.48;4.22;;;;;;;10.39;100.00;96736.81;5029472;28;20407;-68
2022/10/28 01:52:00;;;;;;;12.40;4.50;;;;;;;10.39;100.00;96737.69;5028404;28;20418;-68
2022/10/28 01:54:29;;;;;;;17.75;4.40;;;;;;;10.38;100.00;96724.63;5029392;28;20055;-68
2022/10/28 01:56:56;;;;;;;12.95;4.47;;;;;;;10.43;100.00;96730.41;5029354;28;20048;-68
2022/10/28 01:59:25;;;;;;;7.78;3.88;;;;;;;10.38;100.00;96722.81;5026529;28;20024;-65
2022/10/28 02:01:51;;;;;;;10.82;4.40;;;;;;;10.34;100.00;96726.63;5029030;28;20025;-59
2022/10/28 02:04:17;;;;;;;11.90;4.95;;;;;;;10.27;100.00;96742.03;5029169;28;20510;-59
2022/10/28 02:06:46;;;;;;;14.20;4.88;;;;;;;10.23;100.00;96734.50;5028897;28;20025;-59
2022/10/28 02:09:24;;;;;;;15.10;4.88;;;;;;;10.20;100.00;96732.94;5029013;28;20038;-59
2022/10/28 02:12:02;;;;;;;14.40;4.95;;;;;;;10.22;100.00;96722.31;5029391;28;20033;-59
2022/10/28 02:15:09;;;;;;;21.27;4.80;;;;;;;10.34;100.00;96720.53;5017046;28;20491;-60
2022/10/28 02:18:00;;;;;;;10.73;4.78;;;;;;;10.30;100.00;96714.66;5021458;28;20125;-67
2022/10/28 02:20:32;;;;;;;11.70;4.53;;;;;;;10.28;100.00;96717.44;5020930;28;20107;-67
2022/10/28 02:23:20;;;;;;;14.82;4.80;;;;;;;10.27;100.00;96713.09;5033089;28;20044;-68
2022/10/28 02:25:55;;;;;;;16.95;4.57;;;;;;;10.23;100.00;96718.72;5029615;28;20045;-68
2022/10/28 02:28:31;;;;;;;11.73;4.53;;;;;;;10.30;100.00;96727.81;5020667;28;20105;-69
2022/10/28 02:31:06;;;;;;;11.07;3.83;;;;;;;10.29;100.00;96732.25;5032935;28;20491;-68
2022/10/28 02:33:37;;;;;;;18.33;4.28;;;;;;;10.27;100.00;96725.44;5032303;28;20104;-68
2022/10/28 02:36:13;;;;;;;13.35;4.50;;;;;;;10.27;100.00;96728.88;5032804;28;20029;-69
2022/10/28 02:38:43;;;;;;;13.50;4.47;;;;;;;10.25;100.00;96720.25;5032088;28;20032;-64
2022/10/28 02:41:18;;;;;;;11.98;4.10;;;;;;;10.22;100.00;96703.88;5032670;28;20483;-66
2022/10/28 02:43:46;;;;;;;17.58;4.55;;;;;;;10.14;100.00;96709.72;5032695;28;20402;-66
2022/10/28 02:46:13;;;;;;;13.95;4.30;;;;;;;10.09;100.00;96704.78;5032108;28;20061;-65
2022/10/28 02:48:44;;;;;;;12.73;4.93;;;;;;;10.03;100.00;96708.69;5032368;28;20545;-65
2022/10/28 02:51:14;;;;;;;10.23;3.95;;;;;;;10.04;100.00;96704.28;5031964;28;20036;-65
2022/10/28 02:53:53;;;;;;;11.30;4.47;;;;;;;10.06;100.00;96709.41;5032494;28;20498;-65
2022/10/28 02:56:20;;;;;;;15.48;3.72;;;;;;;10.07;100.00;96700.59;5032171;28;20033;-67
2022/10/28 02:58:46;;;;;;;11.73;3.90;;;;;;;10.08;100.00;96702.28;5032015;28;20132;-59
2022/10/28 03:01:12;;;;;;;11.13;4.32;;;;;;;10.07;100.00;96704.06;5032621;28;20026;-60
2022/10/28 03:03:37;;;;;;;15.13;3.90;;;;;;;10.06;100.00;96706.78;5032199;28;20035;-59
2022/10/28 03:06:02;;;;;;;10.65;4.25;;;;;;;10.01;100.00;96710.59;5031801;28;20025;-60
2022/10/28 03:08:28;;;;;;;12.98;4.22;;;;;;;10.00;100.00;96706.28;5032346;28;20017;-60
2022/10/28 03:10:53;;;;;;;7.30;4.30;;;;;;;9.91;100.00;96709.63;5032097;28;20384;-60
2022/10/28 03:13:18;;;;;;;15.35;4.15;;;;;;;9.90;100.00;96710.56;5032116;28;20033;-59
2022/10/28 03:15:45;;;;;;;14.55;4.63;;;;;;;9.94;100.00;96706.75;5031699;28;20025;-59
2022/10/28 03:18:11;;;;;;;13.70;4.30;;;;;;;9.91;100.00;96700.88;5031758;28;20026;-64
2022/10/28 03:20:36;;;;;;;15.73;4.20;;;;;;;9.89;100.00;96703.63;5031619;28;20082;-59
2022/10/28 03:23:01;;;;;;;11.63;4.60;;;;;;;9.88;100.00;96704.59;5032262;28;20032;-60
2022/10/28 03:25:27;;;;;;;19.63;4.57;;;;;;;9.85;100.00;96697.75;5031436;28;20421;-59
2022/10/28 03:27:52;;;;;;;5.30;3.90;;;;;;;9.87;100.00;96701.09;5032021;28;20061;-59
2022/10/28 03:30:17;;;;;;;8.20;4.22;;;;;;;9.83;100.00;96706.69;5031219;28;20498;-59
2022/10/28 03:32:43;;;;;;;8.57;3.90;;;;;;;9.82;100.00;96705.03;5030494;28;20060;-59
2022/10/28 03:35:09;;;;;;;14.85;4.45;;;;;;;9.81;100.00;96706.81;5031490;28;20013;-60
2022/10/28 03:37:34;;;;;;;6.45;4.15;;;;;;;9.80;100.00;96710.41;5031589;28;20104;-68
2022/10/28 03:40:01;;;;;;;4.65;3.50;;;;;;;9.80;100.00;96699.03;5031336;28;20471;-67
2022/10/28 03:42:27;;;;;;;13.18;4.18;;;;;;;9.78;100.00;96703.56;5031538;28;20407;-67
2022/10/28 03:44:53;;;;;;;14.25;4.20;;;;;;;9.77;100.00;96700.13;5031323;28;20051;-68
2022/10/28 03:47:18;;;;;;;12.52;3.83;;;;;;;9.73;100.00;96699.50;5030999;28;20071;-67
2022/10/28 03:49:44;;;;;;;8.57;3.55;;;;;;;9.72;100.00;96694.34;5031199;28;20016;-67
2022/10/28 03:52:09;;;;;;;9.85;4.10;;;;;;;9.73;100.00;96698.66;5031398;28;20030;-68
2022/10/28 03:54:34;;;;;;;14.23;3.90;;;;;;;9.70;100.00;96701.50;5031257;28;20029;-70
2022/10/28 03:57:00;;;;;;;13.55;3.60;;;;;;;9.64;100.00;96694.91;5031221;28;20132;-59
2022/10/28 03:59:25;;;;;;;20.27;4.45;;;;;;;9.65;100.00;96707.09;5030932;28;20026;-59
2022/10/28 04:01:50;;;;;;;12.05;4.72;;;;;;;9.65;100.00;96709.75;5031177;28;20029;-59
2022/10/28 04:04:16;;;;;;;8.40;3.63;;;;;;;9.67;100.00;96699.09;5030771;28;20033;-59
2022/10/28 04:06:41;;;;;;;15.32;4.53;;;;;;;9.65;100.00;96693.09;5031047;28;20521;-59
2022/10/28 04:09:06;;;;;;;14.05;4.03;;;;;;;9.66;100.00;96695.63;5030694;28;20111;-59
2022/10/28 04:11:32;;;;;;;9.80;4.35;;;;;;;9.68;100.00;96693.72;5030924;28;20033;-59
2022/10/28 04:13:57;;;;;;;10.10;3.65;;;;;;;9.66;100.00;96695.63;5031019;28;20035;-66
2022/10/28 04:16:23;;;;;;;12.15;4.13;;;;;;;9.62;100.00;96699.44;5030710;28;20025;-71
2022/10/28 04:18:48;;;;;;;9.93;3.95;;;;;;;9.61;100.00;96708.25;5030175;28;20024;-70
2022/10/28 04:21:13;;;;;;;14.65;4.50;;;;;;;9.62;100.00;96703.84;5030843;28;20115;-71
2022/10/28 04:23:39;;;;;;;12.68;4.43;;;;;;;9.63;100.00;96706.38;5030115;28;20096;-71
2022/10/28 04:26:04;;;;;;;16.42;5.13;;;;;;;9.60;100.00;96701.31;5030933;28;20057;-70
2022/10/28 04:28:30;;;;;;;11.07;4.32;;;;;;;9.59;100.00;96702.28;5030197;28;20021;-70
2022/10/28 04:30:55;;;;;;;10.15;4.40;;;;;;;9.56;100.00;96699.88;5030463;28;20032;-70
2022/10/28 04:33:20;;;;;;;13.20;4.22;;;;;;;9.54;100.00;96701.78;5030028;28;20033;-68
2022/10/28 04:35:46;;;;;;;9.27;3.92;;;;;;;9.51;100.00;96694.97;5030366;28;20488;-68
2022/10/28 04:38:13;;;;;;;12.02;4.35;;;;;;;9.47;100.00;96701.38;5030202;28;20041;-69
2022/10/28 04:40:38;;;;;;;8.77;3.95;;;;;;;9.42;100.00;96699.09;5030463;28;20049;-68
2022/10/28 04:43:04;;;;;;;13.93;4.55;;;;;;;9.41;100.00;96705.31;5029766;28;20067;-68
2022/10/28 04:45:31;;;;;;;14.38;4.85;;;;;;;9.41;100.00;96702.66;5030093;28;20419;-68
2022/10/28 04:48:00;;;;;;;14.45;4.88;;;;;;;9.41;100.00;96705.31;5029938;28;20025;-69
2022/10/28 04:50:26;;;;;;;8.38;3.92;;;;;;;9.41;100.00;96707.94;5030202;28;20456;-69
2022/10/28 04:52:51;;;;;;;22.23;11.40;;;;;;;9.38;100.00;96708.13;5029883;28;20104;-64
2022/10/28 04:55:18;;;;;;;13.98;7.25;;;;;;;9.38;100.00;96696.78;5030090;28;20100;-70
2022/10/28 04:57:43;;;;;;;11.93;5.05;;;;;;;9.36;100.00;96704.75;5029819;28;20116;-70
2022/10/28 05:00:09;;;;;;;13.52;4.70;;;;;;;9.38;100.00;96710.75;5030304;28;20028;-70
2022/10/28 05:02:34;;;;;;;10.45;4.65;;;;;;;9.38;100.00;96707.28;5029375;28;20339;-70
2022/10/28 05:05:02;;;;;;;13.95;4.60;;;;;;;9.38;100.00;96712.56;5030092;28;20045;-70
2022/10/28 05:07:28;;;;;;;9.43;3.83;;;;;;;9.37;100.00;96716.94;5029552;28;20025;-70
2022/10/28 05:09:53;;;;;;;12.70;4.40;;;;;;;9.33;100.00;96712.88;5029816;28;20035;-70
2022/10/28 05:12:19;;;;;;;15.70;4.00;;;;;;;9.35;100.00;96713.59;5029811;28;20033;-65
2022/10/28 05:14:44;;;;;;;14.23;3.85;;;;;;;9.36;100.00;96715.28;5029697;28;20574;-71
2022/10/28 05:17:10;;;;;;;19.48;4.45;;;;;;;9.40;100.00;96711.50;5029960;28;20029;-70
2022/10/28 05:19:35;;;;;;;8.63;4.53;;;;;;;9.40;100.00;96703.63;5029549;28;20037;-70
2022/10/28 05:22:01;;;;;;;11.13;4.32;;;;;;;9.38;100.00;96704.66;5029216;28;20033;-70
2022/10/28 05:24:26;;;;;;;12.98;4.18;;;;;;;9.36;100.00;96711.81;5029747;28;20036;-71
2022/10/28 05:26:51;;;;;;;16.38;4.43;;;;;;;9.35;100.00;96705.72;5029266;28;20108;-70
2022/10/28 05:29:18;;;;;;;12.98;4.35;;;;;;;9.36;100.00;96698.69;5029609;28;20029;-71
2022/10/28 05:31:44;;;;;;;16.63;5.18;;;;;;;9.32;100.00;96709.41;5029741;28;20029;-67
2022/10/28 05:34:10;;;;;;;9.95;4.20;;;;;;;9.35;100.00;96710.16;5029651;28;20061;-64
2022/10/28 05:36:35;;;;;;;12.70;6.75;;;;;;;9.36;100.00;96698.69;5029252;28;20108;-64
2022/10/28 05:39:01;;;;;;;16.90;5.55;;;;;;;9.31;100.00;96706.88;5029414;28;20483;-63
2022/10/28 05:41:26;;;;;;;17.13;4.80;;;;;;;9.32;100.00;96708.56;5029233;28;20422;-64
2022/10/28 05:43:52;;;;;;;18.45;5.00;;;;;;;9.33;100.00;96705.00;5029360;28;20115;-64
2022/10/28 05:46:17;;;;;;;15.65;5.10;;;;;;;9.32;100.00;96713.81;5029541;28;20037;-64
2022/10/28 05:48:42;;;;;;;10.85;5.07;;;;;;;9.31;100.00;96704.25;5029692;28;20017;-70
2022/10/28 05:51:08;;;;;;;14.07;4.55;;;;;;;9.29;100.00;96708.78;5029095;28;20052;-59
2022/10/28 05:53:33;;;;;;;11.98;5.13;;;;;;;9.24;100.00;96703.84;5044278;28;20057;-65
2022/10/28 05:55:58;;;;;;;12.88;6.40;;;;;;;9.24;100.00;96706.47;5032216;28;20495;-65
2022/10/28 05:58:24;;;;;;;12.10;5.57;;;;;;;9.24;100.00;96710.91;5033156;28;20096;-65
2022/10/28 06:00:49;;;;;;;9.25;5.63;;;;;;;9.22;100.00;96715.44;5048288;28;20530;-65
2022/10/28 06:03:15;;;;;;;11.30;5.78;;;;;;;9.20;100.00;96715.53;5033786;28;20033;-65
2022/10/28 06:05:42;;;;;;;14.02;6.45;;;;;;;9.22;100.00;96718.06;5032953;28;20467;-65
2022/10/28 06:08:10;;;;;;;18.23;6.80;;;;;;;9.20;100.00;96712.09;5033145;28;20422;-68
2022/10/28 06:10:36;;;;;;;12.63;6.65;;;;;;;9.17;100.00;96716.59;5032970;28;20022;-64
2022/10/28 06:13:01;;;;;;;8.52;5.68;;;;;;;9.20;100.00;96720.78;5033377;28;20040;-59
2022/10/28 06:15:27;;;;;;;16.88;5.78;;;;;;;9.26;100.00;96712.47;5032913;28;20026;-59
2022/10/28 06:17:52;;;;;;;22.42;6.80;;;;;;;9.23;100.00;96720.56;5032922;28;20033;-59
2022/10/28 06:20:18;;;;;;;21.05;6.32;;;;;;;9.22;100.00;96713.63;5048175;28;20022;-59
2022/10/28 06:22:51;;;;;;;17.02;6.78;;;;;;;9.21;100.00;96725.09;5032910;28;20116;-59
2022/10/28 06:25:17;;;;;;;15.63;6.90;;;;;;;9.21;100.00;96730.34;5032839;28;20052;-59
2022/10/28 06:27:43;;;;;;;14.20;7.28;;;;;;;9.22;100.00;96732.03;5032659;28;20515;-70
2022/10/28 06:30:09;;;;;;;15.85;5.32;;;;;;;9.25;100.00;96730.97;5032657;28;20140;-59
2022/10/28 06:32:34;;;;;;;11.50;5.72;;;;;;;9.25;100.00;96734.44;5032726;28;20542;-65
2022/10/28 06:34:59;;;;;;;16.20;5.32;;;;;;;9.26;100.00;96740.53;5032399;28;20029;-65
2022/10/28 06:37:25;;;;;;;13.32;5.70;;;;;;;9.28;100.00;96734.25;5033121;28;20108;-65
2022/10/28 06:39:51;;;;;;;12.85;6.30;;;;;;;9.35;100.00;96741.69;5032620;28;20432;-65
2022/10/28 06:42:17;;;;;;;11.30;5.00;;;;;;;9.37;100.00;96737.97;5032075;28;20367;-65
2022/10/28 06:44:43;;;;;;;12.50;5.68;;;;;;;9.41;100.00;96744.72;5032597;28;20048;-65
2022/10/28 06:47:08;;;;;;;12.85;5.72;;;;;;;9.46;100.00;96737.34;5032508;28;20503;-70
2022/10/28 06:49:33;;;;;;;15.75;7.05;;;;;;;9.49;100.00;96740.69;5032243;28;20017;-59
2022/10/28 06:51:59;;;;;;;13.38;7.53;;;;;;;9.54;100.00;96743.84;5032327;28;20509;-59
2022/10/28 06:54:24;;;;;;;15.88;7.32;;;;;;;9.57;100.00;96739.22;5047562;28;20057;-59
2022/10/28 06:56:49;;;;;;;14.93;6.47;;;;;;;9.67;100.00;96749.91;5032409;28;20041;-59
2022/10/28 06:59:15;;;;;;;11.98;6.85;;;;;;;9.72;100.00;96741.66;5031961;28;20444;-59
2022/10/28 07:01:40;;;;;;;12.82;5.55;;;;;;;9.80;100.00;96743.75;5047715;28;20032;-59
2022/10/28 07:04:09;;;;;;;9.82;5.80;;;;;;;9.84;100.00;96747.84;5032138;28;20032;-59
2022/10/28 07:06:35;;;;;;;11.98;6.07;;;;;;;9.85;100.00;96739.84;5031867;28;20083;-67
2022/10/28 07:09:00;;;;;;;14.68;7.18;;;;;;;9.87;100.00;96745.81;5031798;28;20021;-60
2022/10/28 07:11:25;;;;;;;18.02;5.88;;;;;;;9.95;100.00;96739.19;5031793;28;20021;-71
2022/10/28 07:13:51;;;;;;;15.38;5.97;;;;;;;9.98;100.00;96742.41;5032020;28;20029;-70
2022/10/28 07:16:16;;;;;;;15.73;5.35;;;;;;;9.98;100.00;96737.16;5032050;28;20105;-70
2022/10/28 07:18:42;;;;;;;16.60;5.35;;;;;;;10.05;100.00;96750.69;5031705;28;20032;-70
2022/10/28 07:21:08;;;;;;;14.57;4.75;;;;;;;10.16;100.00;96755.16;5031699;28;20117;-70
2022/10/28 07:23:33;;;;;;;9.07;5.13;;;;;;;10.28;100.00;96763.94;5031519;28;20505;-70
2022/10/28 07:25:59;;;;;;;13.65;4.63;;;;;;;10.38;100.00;96758.84;5032308;28;20459;-71
2022/10/28 07:28:26;;;;;;;17.30;5.45;;;;;;;10.46;100.00;96764.38;5028785;28;20039;-65
2022/10/28 07:30:52;;;;;;;14.88;4.63;;;;;;;10.54;100.00;96772.56;5021489;28;20028;-60
2022/10/28 07:33:17;;;;;;;19.88;4.75;;;;;;;10.64;100.00;96775.34;5031431;28;20491;-59
2022/10/28 07:35:43;;;;;;;12.93;4.75;;;;;;;10.78;100.00;96776.09;5031829;28;20043;-59
2022/10/28 07:38:09;;;;;;;13.02;4.88;;;;;;;10.91;100.00;96779.47;5031517;28;20029;-60
2022/10/28 07:40:34;;;;;;;10.10;5.00;;;;;;;11.04;100.00;96776.75;5031253;28;20026;-60
2022/10/28 07:43:00;;;;;;;13.27;4.80;;;;;;;11.15;100.00;96783.81;5031265;28;20025;-59
2022/10/28 07:45:25;;;;;;;15.40;5.03;;;;;;;11.25;100.00;96782.13;5031834;28;20033;-68
2022/10/28 07:47:51;;;;;;;12.02;5.20;;;;;;;11.32;100.00;96786.00;5031230;28;20403;-67
2022/10/28 07:50:17;;;;;;;13.82;6.28;;;;;;;11.36;100.00;96785.75;5031727;28;20602;-66
2022/10/28 07:52:42;;;;;;;13.65;5.80;;;;;;;11.40;100.00;96782.75;5031005;28;20075;-65
2022/10/28 07:55:09;;;;;;;19.83;6.00;;;;;;;11.43;100.00;96779.03;5031158;28;20064;-66
2022/10/28 07:57:34;;;;;;;10.10;5.07;;;;;;;11.44;100.00;96784.19;5030776;28;20053;-65
2022/10/28 08:00:00;;;;;;;16.92;5.70;;;;;;;11.45;100.00;96783.22;5031081;28;20024;-66
2022/10/28 08:02:25;;;;;;;9.77;6.00;;;;;;;11.44;100.00;96793.88;5031427;28;20029;-65
2022/10/28 08:04:51;;;;;;;17.33;6.20;;;;;;;11.42;100.00;96779.97;5030812;28;20120;-59
2022/10/28 08:07:18;;;;;;;22.77;6.68;;;;;;;11.40;100.00;96784.53;5030957;28;20078;-64
2022/10/28 08:09:43;;;;;;;29.08;9.05;;;;;;;11.39;100.00;96786.34;5030630;28;20188;-64
2022/10/28 08:12:12;;;;;;;32.88;11.02;;;;;;;11.38;100.00;96782.00;5030943;28;20290;-64
2022/10/28 08:14:38;;;;;;;29.63;9.80;;;;;;;11.39;100.00;96791.63;5030979;28;20029;-64
2022/10/28 08:17:03;;;;;;;19.92;7.93;;;;;;;11.43;100.00;96790.41;5029856;28;20025;-64
2022/10/28 08:19:29;;;;;;;24.85;7.93;;;;;;;11.53;100.00;96797.59;5031003;28;20030;-64
2022/10/28 08:21:55;;;;;;;31.98;7.88;;;;;;;11.61;100.00;96798.66;5030630;28;20025;-64
2022/10/28 08:24:21;;;;;;;14.82;6.57;;;;;;;11.75;100.00;96797.56;5030711;28;20029;-64
2022/10/28 08:26:46;;;;;;;15.35;6.40;;;;;;;11.91;100.00;96793.72;5030321;28;20509;-67
2022/10/28 08:29:11;;;;;;;19.38;6.53;;;;;;;12.04;100.00;96793.59;5030611;28;20096;-67
2022/10/28 08:31:40;;;;;;;18.05;5.55;;;;;;;12.18;100.00;96788.03;5030087;28;20029;-67
2022/10/28 08:34:06;;;;;;;11.05;4.93;;;;;;;12.31;100.00;96782.59;5030629;28;20079;-68
2022/10/28 08:36:32;;;;;;;12.88;4.28;;;;;;;12.51;100.00;96781.91;5029492;28;20026;-67
2022/10/28 08:39:00;;;;;;;9.93;4.25;;;;;;;12.68;100.00;96778.69;5030341;28;20060;-67
2022/10/28 08:41:37;;;;;;;11.43;4.55;;;;;;;12.73;100.00;96778.31;5030083;28;20495;-68
2022/10/28 08:44:40;;;;;;;11.95;4.20;;;;;;;12.80;100.00;96781.25;5030658;28;20025;-68
2022/10/28 08:47:32;;;;;;;9.80;3.70;;;;;;;12.89;100.00;96786.63;5021404;28;20024;-66
2022/10/28 08:50:04;;;;;;;15.20;4.32;;;;;;;13.00;100.00;96774.31;5029970;28;20014;-66
2022/10/28 08:52:54;;;;;;;14.55;4.13;;;;;;;13.15;100.00;96780.09;5030427;28;20043;-66
2022/10/28 08:55:24;;;;;;;15.95;4.15;;;;;;;13.32;100.00;96779.47;5030200;28;20096;-65
2022/10/28 08:57:54;;;;;;;9.88;4.53;;;;;;;13.49;100.00;96781.66;5029812;28;20056;-66
2022/10/28 09:00:23;;;;;;;10.55;4.15;;;;;;;13.69;100.00;96782.56;5029900;28;20029;-66
2022/10/28 09:03:14;;;;;;;11.70;4.78;;;;;;;13.84;100.00;96781.22;5029813;28;20491;-64
2022/10/28 09:05:42;;;;;;;22.20;8.35;;;;;;;14.02;100.00;96778.72;5028398;28;20041;-71
2022/10/28 09:08:20;;;;;;;26.33;12.13;;;;;;;14.19;99.33;96779.03;5029637;28;20040;-71
2022/10/28 09:11:00;;;;;;;32.67;13.10;;;;;;;14.38;97.64;96774.72;5029662;28;20502;-71
2022/10/28 09:13:39;;;;;;;20.90;9.48;;;;;;;14.53;95.50;96776.00;5029639;28;20025;-71
2022/10/28 09:16:13;;;;;;;23.02;7.53;;;;;;;14.67;91.21;96781.81;5017867;28;20029;-72
2022/10/28 09:18:56;;;;;;;18.30;6.38;;;;;;;14.89;94.84;96778.06;5029461;28;20025;-72
2022/10/28 09:21:40;;;;;;;18.95;6.20;;;;;;;15.09;94.74;96770.06;5029789;28;20037;-71
2022/10/28 09:24:26;;;;;;;21.70;5.28;;;;;;;15.18;94.83;96780.66;5017344;28;20052;-60
2022/10/28 09:27:06;;;;;;;21.42;5.88;;;;;;;15.25;96.14;96785.38;5029302;28;20075;-59
2022/10/28 09:29:52;;;;;;;11.80;5.03;;;;;;;15.29;96.57;96786.75;5028950;28;20025;-59
2022/10/28 09:32:44;;;;;;;20.77;4.78;;;;;;;15.33;93.60;96785.47;5018296;28;20037;-59
2022/10/28 09:35:14;;;;;;;13.63;4.40;;;;;;;15.31;93.86;96788.28;5016351;28;20108;-59
2022/10/28 09:37:55;;;;;;;13.32;4.65;;;;;;;15.30;94.49;96785.78;5029494;28;20048;-59
2022/10/28 09:40:25;;;;;;;13.35;3.95;;;;;;;15.36;92.88;96787.03;5018071;28;20108;-71
2022/10/28 09:42:56;;;;;;;14.57;4.38;;;;;;;15.43;89.76;96788.94;5029048;28;20100;-65
2022/10/28 09:45:26;;;;;;;16.30;4.38;;;;;;;15.54;89.47;96787.09;5029611;28;20029;-68
2022/10/28 09:48:00;;;;;;;17.77;4.47;;;;;;;15.65;87.52;96786.06;5029180;28;20108;-68
2022/10/28 09:50:30;;;;;;;10.90;4.15;;;;;;;15.82;87.88;96784.47;5029314;28;20074;-68
2022/10/28 09:53:16;;;;;;;9.55;4.20;;;;;;;15.91;87.56;96786.25;5028965;28;20029;-67
2022/10/28 09:55:42;;;;;;;13.80;4.47;;;;;;;16.08;87.58;96781.94;5029155;28;20037;-68
2022/10/28 09:58:11;;;;;;;14.23;4.22;;;;;;;16.32;86.90;96780.50;5029359;28;20538;-68
2022/10/28 10:00:37;;;;;;;17.42;4.18;;;;;;;16.64;85.66;96780.97;5029149;28;20492;-65
2022/10/28 10:03:03;;;;;;;14.85;4.40;;;;;;;16.85;84.38;96785.97;5029422;28;20053;-68
2022/10/28 10:05:32;;;;;;;19.63;4.80;;;;;;;17.10;82.01;96781.66;5028937;28;20035;-68
2022/10/28 10:08:03;;;;;;;13.15;3.97;;;;;;;17.30;81.94;96774.31;5028906;28;20025;-68
2022/10/28 10:10:43;;;;;;;10.68;3.85;;;;;;;17.53;79.05;96772.91;5029325;28;20442;-68
2022/10/28 10:13:11;;;;;;;10.27;3.90;;;;;;;17.83;78.32;96776.06;5020093;28;20530;-68
2022/10/28 10:15:44;;;;;;;13.07;3.22;;;;;;;18.05;78.44;96769.31;5029054;28;20017;-68
2022/10/28 10:18:20;;;;;;;15.85;3.50;;;;;;;18.23;76.48;96769.16;5029558;28;20484;-67
2022/10/28 10:20:50;;;;;;;13.63;4.03;;;;;;;18.37;73.38;96780.19;5028829;28;20026;-65
2022/10/28 10:23:30;;;;;;;12.90;3.50;;;;;;;18.51;72.15;96778.72;5028929;28;20056;-65
2022/10/28 10:25:58;;;;;;;7.43;3.38;;;;;;;18.60;72.03;96777.72;5029473;28;20471;-65
2022/10/28 10:28:26;;;;;;;12.70;3.40;;;;;;;18.68;73.12;96768.88;5028846;28;20380;-65
2022/10/28 10:30:58;;;;;;;21.63;4.10;;;;;;;18.72;72.00;96779.06;5029173;28;20409;-65
2022/10/28 10:33:34;;;;;;;13.93;3.95;;;;;;;18.73;70.54;96771.91;5029041;28;20035;-65
2022/10/28 10:36:21;;;;;;;12.90;3.40;;;;;;;18.75;72.88;96765.38;5028913;28;20029;-65
2022/10/28 10:38:50;;;;;;;14.60;3.83;;;;;;;18.69;71.51;96765.22;5016700;28;20144;-68
2022/10/28 10:41:39;;;;;;;7.78;3.65;;;;;;;18.60;69.38;96762.53;5030663;28;20591;-60
2022/10/28 10:44:19;;;;;;;16.17;4.40;;;;;;;18.64;69.73;96762.22;5032653;28;20072;-69
2022/10/28 10:46:46;;;;;;;10.32;3.97;;;;;;;18.72;72.93;96763.03;5021143;28;20021;-69
2022/10/28 10:49:14;;;;;;;13.85;4.10;;;;;;;18.95;70.94;96754.34;5032101;28;20021;-69
2022/10/28 10:52:00;;;;;;;9.02;3.35;;;;;;;19.16;64.61;96753.88;5032873;28;20044;-69
2022/10/28 10:54:29;;;;;;;7.45;3.05;;;;;;;19.36;67.61;96755.31;5031930;28;20017;-69
2022/10/28 10:57:09;;;;;;;15.00;3.38;;;;;;;19.55;65.05;96746.91;5032220;28;20057;-69
2022/10/28 10:59:36;;;;;;;19.77;4.05;;;;;;;19.78;65.07;96742.63;5031484;28;20030;-65
2022/10/28 11:02:18;;;;;;;10.57;3.35;;;;;;;20.07;64.35;96746.53;5032337;28;20103;-64
2022/10/28 11:04:54;;;;;;;8.30;3.45;;;;;;;20.26;67.04;96746.06;5032324;28;20033;-64
2022/10/28 11:07:19;;;;;;;9.05;3.60;;;;;;;20.30;67.29;96736.69;5031797;28;20415;-65
2022/10/28 11:09:49;;;;;;;12.50;3.40;;;;;;;20.33;67.37;96743.50;5032254;28;20040;-65
2022/10/28 11:12:34;;;;;;;11.30;3.15;;;;;;;20.38;64.01;96734.94;5032126;28;20037;-65
2022/10/28 11:15:02;;;;;;;13.00;3.85;;;;;;;20.48;64.89;96730.22;5032129;28;20018;-65
2022/10/28 11:17:33;;;;;;;16.80;3.33;;;;;;;20.55;63.53;96735.66;5031099;28;20025;-72
2022/10/28 11:20:17;;;;;;;12.48;3.42;;;;;;;20.65;62.55;96725.53;5032072;28;20025;-65
2022/10/28 11:23:00;;;;;;;13.95;3.33;;;;;;;20.78;59.36;96735.63;5032290;28;20538;-64
2022/10/28 11:25:31;;;;;;;12.48;3.33;;;;;;;20.73;55.24;96724.66;5031887;28;20474;-64
2022/10/28 11:28:32;;;;;;;8.68;3.53;;;;;;;20.51;53.69;96718.28;5031646;28;20510;-64
2022/10/28 11:31:25;;;;;;;9.27;3.20;;;;;;;20.39;56.75;96712.53;5022575;28;20103;-64
2022/10/28 11:34:19;;;;;;;11.35;3.33;;;;;;;20.26;57.55;96703.28;5019652;28;20604;-64